Essex Fells, NJ (07021)

2:06 AM EST on November 24, 2014 (GMT -0500)
Hillside Ave | Change Station
CLOSE
Current Station
Personal Weather Station
Location: Verona, NJ
Elevation: 597 ft
Nearby Weather Stations

Elev 597 ft 40.83 °N, 74.26 °W | Updated 14 minutes ago

Overcast
Overcast
47.9 °F
Feels Like 48 °F
N
1.7
Wind Variable Wind from North

Today
High -- | Low -- °F
--% Chance of Precip.
Yesterday
High -- | Low -- °F
Precip. -- in
6:54 AM 4:32 PM
Waxing Crescent, 4% visible
Pressure 29.88 in
Visibility 1.8 miles
Clouds Mostly Cloudy 2300 ft
Overcast 3000 ft
Windchill 48 °F
Dew Point 46 °F
Humidity 95%
Rainfall -999.00 in
Snow Depth Not available.
UV 0 out of 12
Pollen .10 out of 12
Air Quality Not available.
Flu Activity Not available.
SPECI KCDW 240659Z AUTO 05004KT 1 3/4SM -RA BR BKN023 OVC030 08/07 A2988 RMK AO2 P0001 T00830067 TSNO

More Conditions Fewer Conditions

Pressure 29.88 in
Visibility 1.8 miles
Clouds Mostly Cloudy 2300 ft
Overcast 3000 ft
Windchill 48 °F
Dew Point 46 °F
Humidity 95%
Rainfall -999.00 in
Snow Depth Not available.
UV 0 out of 12
Pollen .10 out of 12
Air Quality Not available.
Flu Activity Not available.
SPECI KCDW 240659Z AUTO 05004KT 1 3/4SM -RA BR BKN023 OVC030 08/07 A2988 RMK AO2 P0001 T00830067 TSNO

More Conditions Fewer Conditions

10-Day Weather Forecast

Almanac

Astronomy

Nov. 24, 2014 Rise Set
Actual Time
Civil Twilight
Nautical Twilight
Astronomical Twilight
Moon
Length of Visible Light
Length of Day
Tomorrow will be .
, % of the Moon is Illuminated

Today's Extremes

State Highs State Lows

Community

WunderPhotos

Upload Photos

1,773,295 photos uploaded!

WunderBlogs® & News

Nearby

Air Quality

  Air Quality AQ Index Pollutant
Not available.

Snow Depth

Station Depth Elevation

Earthquake Activity

City Distance Mag. Time & Date
Minimum magnitude displayed is 2.5.

Coastal Water Temperatures

Place Temperature

Nearby Weather Stations